Rocky Nook, Massachusetts
Current Conditions -  °F | °C
As of 12:52 AM on Thursday 29 Jan 2015 (Local Time) from KPYM Reporting Station
Clear Clear  
Wind Chill:   Ceiling: Unl
Heat Index:   Visibility: 10mi
Dew Point:   Wind: 0mph
Humidity: 88%   Direction: NA
Pressure: 30.22"   Gusts: NA
Location:  41.9862°N, 70.748°W
Report Text: KPYM 290552Z AUTO 00000KT 10SM CLR M16/M17 A3022 RMK AO2 SLP236 I6000 T11561172 11122 21167 51015
Loading
Personal Weather Stations






























Interactive Weather Map New forecast layout! Learn more

10-Day Weather Forecast

Advertisements
Track Severe Weather on mobile